createdAt,value
2022-12-29T00:00:57.136Z,1.60
2022-12-29T00:03:24.313Z,1.60
2022-12-29T00:05:58.621Z,1.60
2022-12-29T00:08:40.875Z,1.60
2022-12-29T00:11:15.803Z,1.60
2022-12-29T00:14:01.691Z,1.50
2022-12-29T00:16:30.232Z,1.50
2022-12-29T00:18:57.522Z,1.50
2022-12-29T00:21:44.074Z,1.60
2022-12-29T00:24:40.740Z,1.60
2022-12-29T00:27:26.349Z,1.60
2022-12-29T00:30:12.034Z,1.60
2022-12-29T00:32:57.589Z,1.60
2022-12-29T00:35:33.038Z,1.60
2022-12-29T00:38:23.470Z,1.70
2022-12-29T00:41:09.388Z,1.60
2022-12-29T00:43:55.005Z,1.60
2022-12-29T00:46:22.095Z,1.60
2022-12-29T00:49:07.530Z,1.70
2022-12-29T00:51:35.437Z,1.70
2022-12-29T00:54:02.494Z,1.70
2022-12-29T00:56:29.590Z,1.70
2022-12-29T00:58:56.992Z,1.70
2022-12-29T01:01:24.124Z,1.70
2022-12-29T01:03:51.121Z,1.70
2022-12-29T01:06:18.063Z,1.60
2022-12-29T01:08:45.427Z,1.60
2022-12-29T01:11:13.919Z,1.60
2022-12-29T01:13:42.397Z,1.60
2022-12-29T01:16:09.630Z,1.60
2022-12-29T01:18:36.742Z,1.60
2022-12-29T01:21:07.710Z,1.60
2022-12-29T01:23:34.864Z,1.70
2022-12-29T01:26:16.734Z,1.70
2022-12-29T01:28:44.586Z,1.70
2022-12-29T01:31:13.074Z,1.70
2022-12-29T01:33:41.175Z,1.60
2022-12-29T01:36:11.285Z,1.60
2022-12-29T01:38:38.973Z,1.70
2022-12-29T01:41:07.033Z,1.70
2022-12-29T01:43:45.167Z,1.70
2022-12-29T01:46:31.064Z,1.70
2022-12-29T01:49:19.650Z,1.70
2022-12-29T01:51:48.930Z,1.70
2022-12-29T01:54:49.754Z,1.70
2022-12-29T01:57:27.076Z,1.70
2022-12-29T02:00:01.741Z,1.70
2022-12-29T02:02:33.097Z,1.70
2022-12-29T02:05:05.226Z,1.70
2022-12-29T02:07:32.871Z,1.70
2022-12-29T02:10:02.091Z,1.70
2022-12-29T02:12:29.152Z,1.60
2022-12-29T02:15:01.406Z,1.70
2022-12-29T02:17:31.096Z,1.70
2022-12-29T02:20:13.016Z,1.70
2022-12-29T02:23:25.223Z,1.60
2022-12-29T02:26:39.513Z,1.60
2022-12-29T02:29:27.638Z,1.60
2022-12-29T02:32:06.965Z,1.70
2022-12-29T02:34:46.471Z,1.70
2022-12-29T02:37:55.393Z,1.70
2022-12-29T02:40:49.223Z,1.70
2022-12-29T02:43:39.559Z,1.70
2022-12-29T02:46:28.969Z,1.70
2022-12-29T02:49:07.211Z,1.70
2022-12-29T02:51:44.195Z,1.80
2022-12-29T02:54:30.047Z,1.80
2022-12-29T02:56:57.055Z,1.80
2022-12-29T02:59:24.570Z,1.80
2022-12-29T03:02:29.596Z,1.80
2022-12-29T03:05:14.536Z,1.80
2022-12-29T03:07:49.204Z,1.80
2022-12-29T03:10:39.471Z,1.80
2022-12-29T03:13:41.938Z,1.80
2022-12-29T03:16:20.267Z,1.80
2022-12-29T03:19:02.789Z,1.80
2022-12-29T03:21:59.057Z,1.90
2022-12-29T03:24:30.023Z,1.90
2022-12-29T03:27:03.921Z,1.90
2022-12-29T03:29:35.315Z,1.80
2022-12-29T03:32:04.483Z,1.80
2022-12-29T03:34:32.953Z,1.90
2022-12-29T03:37:11.191Z,1.90
2022-12-29T03:39:38.821Z,1.90
2022-12-29T03:42:15.408Z,1.90
2022-12-29T03:44:45.023Z,1.90
2022-12-29T03:47:13.553Z,1.90
2022-12-29T03:49:41.879Z,1.90
2022-12-29T03:52:08.855Z,1.90
2022-12-29T03:54:35.848Z,2.00
2022-12-29T03:57:02.890Z,1.90
2022-12-29T03:59:29.838Z,1.90
2022-12-29T04:01:56.936Z,1.90
2022-12-29T04:04:24.103Z,2.00
2022-12-29T04:06:51.163Z,1.90
2022-12-29T04:09:18.095Z,1.90
2022-12-29T04:11:45.178Z,1.90
2022-12-29T04:14:12.823Z,1.90
2022-12-29T04:16:40.031Z,1.90
2022-12-29T04:19:08.770Z,1.90
2022-12-29T04:21:36.096Z,1.90
2022-12-29T04:24:03.092Z,1.90
2022-12-29T04:26:30.000Z,1.90
2022-12-29T04:28:56.974Z,1.90
2022-12-29T04:31:23.974Z,1.90
2022-12-29T04:33:51.199Z,1.90
2022-12-29T04:36:18.128Z,1.90
2022-12-29T04:38:45.723Z,1.90
2022-12-29T04:41:12.624Z,1.90
2022-12-29T04:43:39.592Z,1.90
2022-12-29T04:46:07.303Z,1.90
2022-12-29T04:48:34.682Z,1.80
2022-12-29T04:51:01.784Z,1.90
2022-12-29T04:53:28.693Z,1.90
2022-12-29T04:55:55.767Z,1.90
2022-12-29T04:58:23.514Z,1.90
2022-12-29T05:00:52.051Z,1.90
2022-12-29T05:03:19.642Z,1.90
2022-12-29T05:05:46.713Z,1.90
2022-12-29T05:08:13.765Z,1.80
2022-12-29T05:10:40.730Z,1.80
2022-12-29T05:13:07.787Z,1.90
2022-12-29T05:15:34.740Z,1.90
2022-12-29T05:18:01.657Z,1.90
2022-12-29T05:20:28.583Z,1.90
2022-12-29T05:22:55.642Z,1.90
2022-12-29T05:25:22.681Z,1.90
2022-12-29T05:27:49.608Z,1.90
2022-12-29T05:30:16.727Z,1.90
2022-12-29T05:32:48.057Z,1.90
2022-12-29T05:35:14.903Z,1.90
2022-12-29T05:37:41.919Z,1.90
2022-12-29T05:40:09.506Z,2.00
2022-12-29T05:42:36.425Z,2.00
2022-12-29T05:45:03.590Z,2.00
2022-12-29T05:47:30.623Z,2.00
2022-12-29T05:49:57.614Z,2.00
2022-12-29T05:52:24.550Z,2.10
2022-12-29T05:54:51.618Z,2.10
2022-12-29T05:57:18.613Z,2.10
2022-12-29T05:59:45.690Z,2.10
2022-12-29T06:02:12.795Z,2.00
2022-12-29T06:04:39.860Z,2.00
2022-12-29T06:07:06.831Z,2.00
2022-12-29T06:09:34.200Z,2.00
2022-12-29T06:12:01.165Z,2.00
2022-12-29T06:14:28.063Z,2.10
2022-12-29T06:16:55.073Z,2.10
2022-12-29T06:19:22.034Z,2.10
2022-12-29T06:21:49.098Z,2.00
2022-12-29T06:24:16.015Z,2.00
2022-12-29T06:26:43.089Z,2.00
2022-12-29T06:29:10.207Z,2.10
2022-12-29T06:31:37.359Z,2.10
2022-12-29T06:34:08.298Z,2.10
2022-12-29T06:36:35.864Z,2.10
2022-12-29T06:39:09.141Z,2.10
2022-12-29T06:41:36.804Z,2.10
2022-12-29T06:44:03.872Z,2.10
2022-12-29T06:46:31.015Z,2.20
2022-12-29T06:48:58.334Z,2.10
2022-12-29T06:51:25.475Z,2.10
2022-12-29T06:53:52.487Z,2.10
2022-12-29T06:56:20.631Z,2.10
2022-12-29T06:58:47.796Z,2.00
2022-12-29T07:01:14.879Z,2.10
2022-12-29T07:03:43.965Z,1.90
2022-12-29T07:06:10.927Z,2.00
2022-12-29T07:08:37.933Z,2.10
2022-12-29T07:11:05.793Z,2.10
2022-12-29T07:13:32.784Z,2.20
2022-12-29T07:15:59.986Z,2.20
2022-12-29T07:18:27.229Z,2.20
2022-12-29T07:20:54.261Z,2.10
2022-12-29T07:23:21.401Z,2.10
2022-12-29T07:25:48.431Z,2.10
2022-12-29T07:28:15.434Z,2.20
2022-12-29T07:30:42.427Z,2.20
2022-12-29T07:33:09.374Z,2.20
2022-12-29T07:35:36.485Z,2.20
2022-12-29T07:38:03.546Z,2.20
2022-12-29T07:40:30.735Z,2.10
2022-12-29T07:42:59.221Z,2.20
2022-12-29T07:45:26.161Z,2.20
2022-12-29T07:47:53.066Z,2.30
2022-12-29T07:50:20.051Z,2.30
2022-12-29T07:52:48.939Z,2.30
2022-12-29T07:55:16.969Z,2.30
2022-12-29T07:57:44.429Z,2.40
2022-12-29T08:00:12.277Z,2.40
2022-12-29T08:02:39.447Z,2.40
2022-12-29T08:05:07.158Z,2.40
2022-12-29T08:07:34.194Z,2.40
2022-12-29T08:10:01.190Z,2.40
2022-12-29T08:12:28.261Z,2.40
2022-12-29T08:14:58.501Z,2.50
2022-12-29T08:17:25.449Z,2.40
2022-12-29T08:19:52.559Z,2.50
2022-12-29T08:22:19.642Z,2.50
2022-12-29T08:24:46.860Z,2.50
2022-12-29T08:27:20.471Z,2.50
2022-12-29T08:29:48.652Z,2.50
2022-12-29T08:32:15.698Z,2.60
2022-12-29T08:34:42.785Z,2.60
2022-12-29T08:37:09.831Z,2.50
2022-12-29T08:39:36.914Z,2.60
2022-12-29T08:42:03.930Z,2.60
2022-12-29T08:44:30.945Z,2.60
2022-12-29T08:46:57.946Z,2.60
2022-12-29T08:49:25.088Z,2.60
2022-12-29T08:51:52.302Z,2.60
2022-12-29T08:54:19.293Z,2.60
2022-12-29T08:56:46.239Z,2.60
2022-12-29T08:59:13.211Z,2.60
2022-12-29T09:01:41.776Z,2.60
2022-12-29T09:04:15.399Z,2.60
2022-12-29T09:06:43.622Z,2.70
2022-12-29T09:09:11.433Z,2.70
2022-12-29T09:11:38.550Z,2.70
2022-12-29T09:14:06.051Z,2.70
2022-12-29T09:16:33.739Z,2.70
2022-12-29T09:19:01.501Z,2.70
2022-12-29T09:21:28.509Z,2.80
2022-12-29T09:23:55.733Z,2.80
2022-12-29T09:26:22.835Z,2.80
2022-12-29T09:28:50.760Z,2.80
2022-12-29T09:31:18.015Z,2.80
2022-12-29T09:33:45.087Z,2.80
2022-12-29T09:36:12.113Z,2.80
2022-12-29T09:38:39.183Z,2.80
2022-12-29T09:41:18.736Z,2.80
2022-12-29T09:44:06.942Z,2.80
2022-12-29T09:46:41.826Z,2.80
2022-12-29T09:49:27.579Z,2.80
2022-12-29T09:52:16.875Z,2.90
2022-12-29T09:54:59.843Z,2.90
2022-12-29T09:57:57.750Z,3.00
2022-12-29T10:00:37.481Z,3.00
2022-12-29T10:03:16.069Z,2.90
2022-12-29T10:06:12.531Z,2.90
2022-12-29T10:08:57.877Z,2.90
2022-12-29T10:11:32.498Z,2.90
2022-12-29T10:14:41.928Z,2.80
2022-12-29T10:17:14.911Z,2.90
2022-12-29T10:20:06.500Z,2.90
2022-12-29T10:23:07.440Z,2.90
2022-12-29T10:25:39.674Z,2.90
2022-12-29T10:28:32.051Z,2.80
2022-12-29T10:31:08.344Z,2.80
2022-12-29T10:33:42.463Z,2.90
2022-12-29T10:36:25.240Z,3.00
2022-12-29T10:39:04.568Z,3.00
2022-12-29T10:42:12.900Z,3.10
2022-12-29T10:44:40.174Z,3.10
2022-12-29T10:47:13.228Z,3.20
2022-12-29T10:49:43.919Z,3.20
2022-12-29T10:52:12.648Z,3.20
2022-12-29T10:54:48.702Z,3.20
2022-12-29T10:57:48.366Z,3.20
2022-12-29T11:00:21.812Z,3.20
2022-12-29T11:02:59.272Z,3.20
2022-12-29T11:05:38.771Z,3.20
2022-12-29T11:08:27.439Z,3.20
2022-12-29T11:11:10.851Z,3.30
2022-12-29T11:14:02.285Z,3.30
2022-12-29T11:16:35.727Z,3.20
2022-12-29T11:19:03.328Z,3.30
2022-12-29T11:21:43.415Z,3.30
2022-12-29T11:24:29.856Z,3.30
2022-12-29T11:27:15.784Z,3.30
2022-12-29T11:29:44.790Z,3.30
2022-12-29T11:32:29.199Z,3.20
2022-12-29T11:35:02.389Z,3.20
2022-12-29T11:40:22.948Z,3.10
2022-12-29T11:42:56.795Z,3.00
2022-12-29T11:45:47.785Z,3.00
2022-12-29T11:48:19.547Z,2.90
2022-12-29T11:50:54.046Z,2.90
2022-12-29T11:53:48.015Z,2.90
2022-12-29T11:56:17.823Z,2.90
2022-12-29T11:58:45.225Z,3.00
2022-12-29T12:01:28.700Z,3.00
2022-12-29T12:04:03.631Z,2.90
2022-12-29T12:06:35.178Z,2.90
2022-12-29T12:11:46.581Z,3.00
2022-12-29T12:14:26.692Z,3.00
2022-12-29T12:16:53.629Z,3.10
2022-12-29T12:19:44.607Z,3.10
2022-12-29T12:22:39.208Z,3.20
2022-12-29T12:25:24.578Z,3.10
2022-12-29T12:27:59.763Z,3.20
2022-12-29T12:30:31.003Z,3.20
2022-12-29T12:33:03.540Z,3.20
2022-12-29T12:35:30.449Z,3.10
2022-12-29T12:38:24.504Z,3.10
2022-12-29T12:41:29.997Z,3.20
2022-12-29T12:44:25.529Z,3.20
2022-12-29T12:47:13.935Z,3.20
2022-12-29T12:50:08.252Z,3.20
2022-12-29T12:52:40.817Z,3.10
2022-12-29T12:55:45.192Z,3.00
2022-12-29T12:58:30.598Z,3.00
2022-12-29T13:01:12.805Z,3.10
2022-12-29T13:03:49.530Z,3.10
2022-12-29T13:06:58.478Z,3.10
2022-12-29T13:09:45.143Z,3.10
2022-12-29T13:12:22.970Z,3.10
2022-12-29T13:15:11.550Z,3.10
2022-12-29T13:17:56.751Z,3.10
2022-12-29T13:20:45.243Z,3.20
2022-12-29T13:23:26.998Z,3.20
2022-12-29T13:26:05.919Z,3.20
2022-12-29T13:28:46.848Z,3.20
2022-12-29T13:31:16.713Z,3.10
2022-12-29T13:33:58.859Z,3.10
2022-12-29T13:36:49.152Z,3.10
2022-12-29T13:39:34.573Z,3.10
2022-12-29T13:42:03.784Z,3.10
2022-12-29T13:44:52.320Z,3.10
2022-12-29T13:47:27.958Z,3.00
2022-12-29T13:49:57.773Z,3.00
2022-12-29T13:52:38.107Z,3.00
2022-12-29T13:55:25.019Z,3.00
2022-12-29T13:57:51.903Z,3.10
2022-12-29T14:00:23.246Z,3.00
2022-12-29T14:03:30.722Z,3.00
2022-12-29T14:06:31.133Z,3.00
2022-12-29T14:09:06.822Z,3.00
2022-12-29T14:11:37.451Z,3.00
2022-12-29T14:14:25.869Z,3.00
2022-12-29T14:16:54.112Z,3.10
2022-12-29T14:19:27.683Z,3.10
2022-12-29T14:21:58.759Z,3.10
2022-12-29T14:24:37.840Z,3.10
2022-12-29T14:29:51.886Z,3.10
2022-12-29T14:32:28.651Z,3.10
2022-12-29T14:34:57.214Z,3.10
2022-12-29T14:37:37.332Z,3.10
2022-12-29T14:40:20.212Z,3.10
2022-12-29T14:42:48.272Z,3.10
2022-12-29T14:45:15.180Z,3.10
2022-12-29T14:47:42.457Z,3.10
2022-12-29T14:50:12.350Z,3.10
2022-12-29T14:53:04.557Z,3.10
2022-12-29T14:55:47.459Z,3.10
2022-12-29T14:58:44.036Z,3.10
2022-12-29T15:01:21.698Z,3.10
2022-12-29T15:03:57.108Z,3.10
2022-12-29T15:06:29.166Z,3.00
2022-12-29T15:09:21.606Z,3.00
2022-12-29T15:11:55.093Z,3.00
2022-12-29T15:14:58.311Z,3.00
2022-12-29T15:17:31.661Z,3.00
2022-12-29T15:20:01.730Z,3.10
2022-12-29T15:22:29.282Z,3.10
2022-12-29T15:24:57.768Z,3.10
2022-12-29T15:27:26.770Z,3.10
2022-12-29T15:30:04.835Z,3.10
2022-12-29T15:32:43.688Z,3.10
2022-12-29T15:35:32.242Z,3.10
2022-12-29T15:37:59.871Z,3.10
2022-12-29T15:40:32.614Z,3.00
2022-12-29T15:43:35.503Z,3.00
2022-12-29T15:46:03.206Z,3.00
2022-12-29T15:48:32.208Z,3.10
2022-12-29T15:51:00.140Z,3.10
2022-12-29T15:53:33.508Z,3.10
2022-12-29T15:56:11.352Z,3.10
2022-12-29T15:58:48.677Z,3.20
2022-12-29T16:01:28.525Z,3.20
2022-12-29T16:03:56.381Z,3.20
2022-12-29T16:06:23.400Z,3.20
2022-12-29T16:09:01.452Z,3.20
2022-12-29T16:11:39.684Z,3.20
2022-12-29T16:14:20.616Z,3.20
2022-12-29T16:16:49.047Z,3.20
2022-12-29T16:19:37.213Z,3.20
2022-12-29T16:22:12.381Z,3.10
2022-12-29T16:24:41.210Z,3.10
2022-12-29T16:27:23.438Z,3.10
2022-12-29T16:29:55.546Z,3.00
2022-12-29T16:32:30.338Z,3.10
2022-12-29T16:35:14.976Z,3.10
2022-12-29T16:37:42.077Z,3.20
2022-12-29T16:40:33.304Z,3.10
2022-12-29T16:43:02.265Z,3.10
2022-12-29T16:46:01.138Z,3.10
2022-12-29T16:48:47.804Z,3.20
2022-12-29T16:51:31.772Z,3.20
2022-12-29T16:54:00.155Z,3.20
2022-12-29T16:56:34.079Z,3.10
2022-12-29T16:59:06.213Z,3.10
2022-12-29T17:01:40.278Z,3.10
2022-12-29T17:04:11.336Z,3.10
2022-12-29T17:06:38.546Z,3.10
2022-12-29T17:09:27.442Z,3.20
2022-12-29T17:12:02.856Z,3.10
2022-12-29T17:14:37.248Z,3.10
2022-12-29T17:17:32.332Z,3.10
2022-12-29T17:20:22.569Z,3.10
2022-12-29T17:22:51.528Z,3.10
2022-12-29T17:25:22.130Z,3.10
2022-12-29T17:27:54.003Z,3.10
2022-12-29T17:30:27.116Z,3.10
2022-12-29T17:33:05.738Z,3.20
2022-12-29T17:35:32.676Z,3.20
2022-12-29T17:37:59.703Z,3.20
2022-12-29T17:40:32.682Z,3.20
2022-12-29T17:43:00.740Z,3.20
2022-12-29T17:45:30.549Z,3.20
2022-12-29T17:48:01.718Z,3.20
2022-12-29T17:50:30.840Z,3.20
2022-12-29T17:53:07.470Z,3.20
2022-12-29T17:55:37.936Z,3.30
2022-12-29T17:58:32.799Z,3.30
2022-12-29T18:01:02.099Z,3.30
2022-12-29T18:03:33.859Z,3.30
2022-12-29T18:06:01.944Z,3.30
2022-12-29T18:08:29.719Z,3.30
2022-12-29T18:10:57.407Z,3.30
2022-12-29T18:13:45.461Z,3.30
2022-12-29T18:16:14.786Z,3.40
2022-12-29T18:18:41.891Z,3.40
2022-12-29T18:21:18.935Z,3.30
2022-12-29T18:23:46.849Z,3.30
2022-12-29T18:26:35.717Z,3.40
2022-12-29T18:29:02.881Z,3.40
2022-12-29T18:31:33.468Z,3.40
2022-12-29T18:34:03.192Z,3.40
2022-12-29T18:36:30.172Z,3.40
2022-12-29T18:38:57.386Z,3.40
2022-12-29T18:41:29.654Z,3.40
2022-12-29T18:43:57.713Z,3.40
2022-12-29T18:46:24.734Z,3.40
2022-12-29T18:48:52.483Z,3.40
2022-12-29T18:51:33.441Z,3.40
2022-12-29T18:54:01.024Z,3.40
2022-12-29T18:56:27.949Z,3.40
2022-12-29T18:58:55.627Z,3.40
2022-12-29T19:01:25.170Z,3.40
2022-12-29T19:03:52.648Z,3.40
2022-12-29T19:06:21.438Z,3.40
2022-12-29T19:08:48.643Z,3.40
2022-12-29T19:11:15.697Z,3.40
2022-12-29T19:13:42.658Z,3.50
2022-12-29T19:16:22.130Z,3.50
2022-12-29T19:19:05.751Z,3.50
2022-12-29T19:21:36.719Z,3.50
2022-12-29T19:24:03.993Z,3.50
2022-12-29T19:26:34.746Z,3.50
2022-12-29T19:29:02.318Z,3.50
2022-12-29T19:31:29.395Z,3.40
2022-12-29T19:33:56.486Z,3.40
2022-12-29T19:36:23.485Z,3.40
2022-12-29T19:38:50.671Z,3.40
2022-12-29T19:41:17.676Z,3.40
2022-12-29T19:43:44.862Z,3.40
2022-12-29T19:46:17.532Z,3.40
2022-12-29T19:48:44.725Z,3.50
2022-12-29T19:51:17.227Z,3.50
2022-12-29T19:53:47.536Z,3.50
2022-12-29T19:56:15.260Z,3.50
2022-12-29T19:58:46.924Z,3.50
2022-12-29T20:01:21.076Z,3.50
2022-12-29T20:03:49.237Z,3.50
2022-12-29T20:06:17.012Z,3.50
2022-12-29T20:08:44.186Z,3.40
2022-12-29T20:11:14.416Z,3.50
2022-12-29T20:13:42.542Z,3.50
2022-12-29T20:16:15.574Z,3.50
2022-12-29T20:18:42.959Z,3.50
2022-12-29T20:21:17.413Z,3.50
2022-12-29T20:23:45.473Z,3.50
2022-12-29T20:26:18.894Z,3.50
2022-12-29T20:28:46.394Z,3.50
2022-12-29T20:31:21.433Z,3.50
2022-12-29T20:33:49.105Z,3.50
2022-12-29T20:36:19.230Z,3.50
2022-12-29T20:38:47.531Z,3.50
2022-12-29T20:41:15.202Z,3.50
2022-12-29T20:43:42.530Z,3.50
2022-12-29T20:46:11.291Z,3.40
2022-12-29T20:48:38.316Z,3.50
2022-12-29T20:51:05.376Z,3.50
2022-12-29T20:53:33.967Z,3.40
2022-12-29T20:56:04.133Z,3.40
2022-12-29T20:58:31.739Z,3.50
2022-12-29T21:01:03.571Z,3.50
2022-12-29T21:03:31.297Z,3.50
2022-12-29T21:06:00.643Z,3.50
2022-12-29T21:08:30.154Z,3.60
2022-12-29T21:10:58.875Z,3.60
2022-12-29T21:13:26.804Z,3.60
2022-12-29T21:16:01.447Z,3.60
2022-12-29T21:18:29.477Z,3.60
2022-12-29T21:21:07.728Z,3.60
2022-12-29T21:23:37.896Z,3.70
2022-12-29T21:26:25.205Z,3.70
2022-12-29T21:28:52.603Z,3.80
2022-12-29T21:31:30.554Z,3.70
2022-12-29T21:33:57.985Z,3.80
2022-12-29T21:36:25.610Z,3.80
2022-12-29T21:38:53.157Z,3.80
2022-12-29T21:41:21.229Z,3.80
2022-12-29T21:44:07.245Z,3.90
2022-12-29T21:46:36.031Z,3.90
2022-12-29T21:49:04.273Z,3.90
2022-12-29T21:51:50.145Z,3.90
2022-12-29T21:54:37.660Z,3.90
2022-12-29T21:57:05.583Z,3.90
2022-12-29T21:59:51.110Z,4.00
2022-12-29T22:02:41.584Z,4.00
2022-12-29T22:05:29.617Z,4.00
2022-12-29T22:08:15.200Z,4.10
2022-12-29T22:11:02.954Z,4.10
2022-12-29T22:13:34.752Z,4.20
2022-12-29T22:16:06.864Z,4.20
2022-12-29T22:18:34.364Z,4.20
2022-12-29T22:21:09.927Z,4.20
2022-12-29T22:23:37.890Z,4.20
2022-12-29T22:26:07.236Z,4.30
2022-12-29T22:28:41.950Z,4.30
2022-12-29T22:31:27.299Z,4.30
2022-12-29T22:33:56.333Z,4.30
2022-12-29T22:36:26.948Z,4.30
2022-12-29T22:38:54.112Z,4.30
2022-12-29T22:41:21.672Z,4.30
2022-12-29T22:43:48.749Z,4.30
2022-12-29T22:46:15.836Z,4.30
2022-12-29T22:48:42.799Z,4.30
2022-12-29T22:51:09.987Z,4.30
2022-12-29T22:53:37.016Z,4.30
2022-12-29T22:56:09.404Z,4.40
2022-12-29T22:58:39.685Z,4.30
2022-12-29T23:01:06.699Z,4.40
2022-12-29T23:03:33.796Z,4.30
2022-12-29T23:06:03.327Z,4.40
2022-12-29T23:08:34.624Z,4.30
2022-12-29T23:11:02.917Z,4.30
2022-12-29T23:13:30.009Z,4.30
2022-12-29T23:15:57.154Z,4.30
2022-12-29T23:18:24.191Z,4.30
2022-12-29T23:20:51.381Z,4.30
2022-12-29T23:23:40.556Z,4.30
2022-12-29T23:26:11.896Z,4.40
2022-12-29T23:28:38.823Z,4.40
2022-12-29T23:31:07.084Z,4.40
2022-12-29T23:33:47.754Z,4.40
2022-12-29T23:36:15.017Z,4.40
2022-12-29T23:38:42.112Z,4.40
2022-12-29T23:41:10.711Z,4.40
2022-12-29T23:43:37.734Z,4.50
2022-12-29T23:46:17.616Z,4.40
2022-12-29T23:48:44.906Z,4.40
2022-12-29T23:51:12.089Z,4.40
2022-12-29T23:53:41.437Z,4.50
2022-12-29T23:56:11.812Z,4.40
2022-12-29T23:58:38.959Z,4.40
